Time;durP1;ratioP1;P1;durP2;ratioP2;P2;SDS_P1;SDS_P2;PMS_P1;PMS_P2;Temp;Humidity;BMP_temperature;BMP_pressure;BME280_temperature;BME280_humidity;BME280_pressure;Samples;Min_cycle;Max_cycle;Signal;HPM_P1;HPM_P2
2021/11/07 00:01:52;;;;;;;0.20;0.10;;;9.60;99.90;;;;;;20404323;29;20292;-75
2021/11/07 00:11:59;;;;;;;0.20;0.10;;;9.80;99.90;;;;;;20413333;29;20225;-76
2021/11/07 00:22:08;;;;;;;0.20;0.10;;;10.00;99.90;;;;;;20371173;29;20203;-80
2021/11/07 00:56:15;;;;;;;0.20;0.10;;;9.50;99.90;;;;;;21979169;23;20237;-78
2021/11/07 01:06:19;;;;;;;0.20;0.10;;;9.50;99.90;;;;;;20358538;29;20201;-74
2021/11/07 01:16:24;;;;;;;0.20;0.10;;;9.60;99.90;;;;;;20378824;29;20260;-76
2021/11/07 01:26:31;;;;;;;0.20;0.10;;;9.60;99.90;;;;;;20364434;29;20189;-76
2021/11/07 01:36:49;;;;;;;0.20;0.10;;;9.60;99.90;;;;;;20400844;29;20221;-74
2021/11/07 01:46:56;;;;;;;0.20;0.10;;;9.30;99.90;;;;;;20346881;29;20565;-75
2021/11/07 01:57:01;;;;;;;0.20;0.10;;;9.60;99.90;;;;;;20394029;29;20257;-76
2021/11/07 02:07:05;;;;;;;0.20;0.10;;;9.50;99.90;;;;;;20526489;28;20631;-78
2021/11/07 02:17:11;;;;;;;0.20;0.10;;;9.30;99.90;;;;;;20575443;28;20220;-78
2021/11/07 02:27:16;;;;;;;0.20;0.10;;;9.20;99.90;;;;;;20558644;28;20715;-78
2021/11/07 02:37:20;;;;;;;0.20;0.10;;;9.20;99.90;;;;;;20558559;28;20238;-80
2021/11/07 02:47:25;;;;;;;0.20;0.10;;;9.30;99.90;;;;;;20575164;28;20235;-81
2021/11/07 02:57:29;;;;;;;0.20;0.10;;;9.30;99.90;;;;;;20496830;28;20237;-76
2021/11/07 03:07:34;;;;;;;0.20;0.10;;;9.10;99.90;;;;;;20521153;28;20612;-79
2021/11/07 03:17:38;;;;;;;0.20;0.10;;;9.00;99.90;;;;;;20547853;28;20716;-79
2021/11/07 03:27:44;;;;;;;0.20;0.10;;;9.10;99.90;;;;;;20488646;28;20275;-78
2021/11/07 03:37:56;;;;;;;0.20;0.10;;;9.10;99.90;;;;;;20548563;28;20311;-77
2021/11/07 03:48:02;;;;;;;0.20;0.10;;;8.80;99.90;;;;;;20504205;29;20295;-77
2021/11/07 03:58:06;;;;;;;0.20;0.10;;;8.80;99.90;;;;;;20571465;28;20298;-76
2021/11/07 04:08:11;;;;;;;0.20;0.10;;;8.90;99.90;;;;;;20583532;28;20287;-77
2021/11/07 04:18:15;;;;;;;0.20;0.10;;;8.80;99.90;;;;;;20583791;28;20326;-78
2021/11/07 04:28:20;;;;;;;0.20;0.10;;;8.70;99.90;;;;;;20563919;28;20773;-77
2021/11/07 04:38:24;;;;;;;0.20;0.10;;;8.70;99.90;;;;;;20549021;28;20244;-77
2021/11/07 04:48:29;;;;;;;0.20;0.10;;;8.90;99.90;;;;;;20498470;28;20197;-76
2021/11/07 04:58:32;;;;;;;0.47;0.47;;;9.00;99.90;;;;;;20483383;28;20290;-77
2021/11/07 05:08:37;;;;;;;0.70;0.70;;;8.90;99.90;;;;;;20501827;29;20492;-77
2021/11/07 05:18:41;;;;;;;0.20;0.10;;;8.80;99.90;;;;;;20497248;28;20323;-77
2021/11/07 05:28:46;;;;;;;0.20;0.10;;;8.90;99.90;;;;;;20498643;29;20210;-75
2021/11/07 05:38:50;;;;;;;0.20;0.10;;;8.80;99.90;;;;;;20498674;29;20287;-74
2021/11/07 05:48:55;;;;;;;0.20;0.10;;;8.80;99.90;;;;;;20497968;29;20256;-74
2021/11/07 05:58:59;;;;;;;0.20;0.10;;;8.60;99.90;;;;;;20497691;28;20229;-74
2021/11/07 06:09:04;;;;;;;0.20;0.10;;;8.70;99.90;;;;;;20501016;28;20288;-75
2021/11/07 06:19:08;;;;;;;0.20;0.00;;;8.20;99.90;;;;;;20497044;29;20219;-75
2021/11/07 06:29:13;;;;;;;0.20;0.10;;;8.40;99.90;;;;;;20496517;28;20552;-76
2021/11/07 06:39:17;;;;;;;0.20;0.10;;;8.30;99.90;;;;;;20511414;29;20220;-77
2021/11/07 06:49:23;;;;;;;0.20;0.10;;;8.30;99.90;;;;;;20510976;29;20244;-75
2021/11/07 06:59:27;;;;;;;0.20;0.10;;;8.20;99.90;;;;;;20492444;29;20323;-75
2021/11/07 07:09:39;;;;;;;0.20;0.10;;;8.20;99.90;;;;;;20548497;28;20221;-74
2021/11/07 07:19:52;;;;;;;0.20;0.10;;;8.90;99.90;;;;;;20488323;29;20210;-75
2021/11/07 07:40:20;;;;;;;0.20;0.10;;;9.80;99.90;;;;;;20530899;28;20295;-79
2021/11/07 07:50:25;;;;;;;0.60;0.60;;;10.00;99.90;;;;;;20585653;28;20224;-77
2021/11/07 08:00:29;;;;;;;0.20;0.10;;;9.90;99.90;;;;;;20583613;28;20200;-75
2021/11/07 08:10:34;;;;;;;0.20;0.10;;;10.30;99.90;;;;;;20567944;28;20247;-75
2021/11/07 08:20:38;;;;;;;0.20;0.10;;;10.60;99.90;;;;;;20580742;28;20323;-78
2021/11/07 08:30:43;;;;;;;0.20;0.10;;;10.90;99.90;;;;;;20581884;28;20879;-78
2021/11/07 08:40:49;;;;;;;0.20;0.10;;;11.10;99.90;;;;;;20515619;28;20196;-78
2021/11/07 09:01:21;;;;;;;0.20;0.10;;;11.90;99.90;;;;;;20575681;28;20251;-78
2021/11/07 09:11:26;;;;;;;0.20;0.10;;;12.40;99.90;;;;;;20578896;28;20291;-80
2021/11/07 09:21:34;;;;;;;0.20;0.10;;;12.30;99.90;;;;;;20577889;28;20189;-79
2021/11/07 09:31:46;;;;;;;0.20;0.13;;;12.50;99.90;;;;;;20573687;28;20220;-79
2021/11/07 09:42:23;;;;;;;0.20;0.10;;;13.10;99.90;;;;;;20556186;28;20511;-76
2021/11/07 09:52:34;;;;;;;0.20;0.10;;;13.30;99.90;;;;;;20567687;28;20318;-75
2021/11/07 10:02:38;;;;;;;0.20;0.10;;;13.70;99.90;;;;;;20551973;28;20187;-76
2021/11/07 10:12:45;;;;;;;0.20;0.10;;;14.50;99.90;;;;;;20570163;28;20230;-77
2021/11/07 10:22:54;;;;;;;0.20;0.10;;;14.70;99.90;;;;;;20551020;28;20251;-78
2021/11/07 10:33:05;;;;;;;0.20;0.10;;;15.60;99.90;;;;;;20552874;28;20228;-79
2021/11/07 10:53:47;;;;;;;0.20;0.00;;;17.10;99.90;;;;;;20569212;28;20227;-79
2021/11/07 11:03:54;;;;;;;0.20;0.10;;;17.10;99.90;;;;;;20565721;28;20223;-79
2021/11/07 11:14:07;;;;;;;0.20;0.00;;;17.90;99.90;;;;;;20566574;28;20223;-78
2021/11/07 11:24:36;;;;;;;0.20;0.10;;;18.80;99.90;;;;;;20561748;28;20204;-80
2021/11/07 11:34:44;;;;;;;0.20;0.10;;;19.70;99.90;;;;;;20502322;29;20240;-79
2021/11/07 11:44:52;;;;;;;0.20;0.10;;;20.70;99.90;;;;;;20487791;28;20225;-78
2021/11/07 11:55:10;;;;;;;0.20;0.00;;;20.30;99.90;;;;;;20570875;28;20251;-77
2021/11/07 12:05:22;;;;;;;0.20;0.10;;;21.10;99.90;;;;;;20581286;28;20554;-78
2021/11/07 12:15:44;;;;;;;0.20;0.00;;;20.50;99.90;;;;;;20563793;28;20243;-77
2021/11/07 12:25:49;;;;;;;0.20;0.00;;;20.70;99.90;;;;;;20579753;28;20200;-77
2021/11/07 12:36:05;;;;;;;0.20;0.00;;;22.40;99.90;;;;;;20507136;28;20217;-81
2021/11/07 12:46:17;;;;;;;0.20;0.10;;;22.10;99.90;;;;;;20479138;29;20188;-77
2021/11/07 12:56:31;;;;;;;0.20;0.00;;;22.00;99.90;;;;;;20501675;29;20678;-79
2021/11/07 13:06:35;;;;;;;0.20;0.00;;;22.90;99.90;;;;;;20479334;29;20192;-80
2021/11/07 13:16:53;;;;;;;0.20;0.00;;;22.00;99.90;;;;;;20496341;29;20323;-78
2021/11/07 13:27:12;;;;;;;0.20;0.00;;;22.50;99.90;;;;;;20497226;29;20604;-77
2021/11/07 13:37:22;;;;;;;0.20;0.00;;;23.30;99.90;;;;;;20495172;29;20748;-75
2021/11/07 13:47:30;;;;;;;0.20;0.00;;;23.50;99.90;;;;;;20495360;28;20614;-77
2021/11/07 13:57:35;;;;;;;0.20;0.00;;;24.10;99.90;;;;;;20503945;28;20246;-75
2021/11/07 14:07:40;;;;;;;0.20;0.00;;;24.00;99.60;;;;;;20572323;28;20203;-78
2021/11/07 14:17:47;;;;;;;0.20;0.00;;;24.00;99.90;;;;;;20570884;28;20234;-75
2021/11/07 14:27:57;;;;;;;0.20;0.00;;;23.70;99.50;;;;;;20571289;28;20808;-75
2021/11/07 14:38:06;;;;;;;0.20;0.00;;;23.90;99.40;;;;;;20553283;28;20309;-77
2021/11/07 14:58:54;;;;;;;0.20;0.00;;;23.20;99.90;;;;;;20563076;28;20228;-77
2021/11/07 15:09:01;;;;;;;0.20;0.00;;;23.30;99.90;;;;;;20592946;28;20204;-78
2021/11/07 15:19:11;;;;;;;0.20;0.10;;;20.60;99.90;;;;;;20565924;28;20234;-75
2021/11/07 15:29:16;;;;;;;0.20;0.10;;;19.50;99.90;;;;;;20583806;28;20222;-76
2021/11/07 15:39:23;;;;;;;0.20;0.10;;;19.30;99.90;;;;;;20582941;28;20220;-74
2021/11/07 15:49:27;;;;;;;0.20;0.10;;;19.40;99.90;;;;;;20564574;28;20208;-75
2021/11/07 16:10:12;;;;;;;0.20;0.10;;;17.90;99.90;;;;;;20532408;28;20210;-75
2021/11/07 16:20:19;;;;;;;0.20;0.10;;;17.20;99.90;;;;;;20629976;28;20235;-75
2021/11/07 16:30:23;;;;;;;0.20;0.10;;;16.50;99.90;;;;;;20657138;28;20210;-74
2021/11/07 16:40:32;;;;;;;0.20;0.10;;;16.30;99.90;;;;;;20656288;28;20223;-74
2021/11/07 16:50:37;;;;;;;0.20;0.00;;;15.90;99.90;;;;;;20656736;28;20261;-74
2021/11/07 17:00:45;;;;;;;0.20;0.13;;;15.10;99.90;;;;;;20580507;28;20595;-72
2021/11/07 17:10:49;;;;;;;0.20;0.10;;;14.10;99.90;;;;;;20572796;28;20216;-73
2021/11/07 17:21:03;;;;;;;0.20;0.10;;;13.80;99.90;;;;;;20572430;28;20220;-73
2021/11/07 17:31:31;;;;;;;0.20;0.10;;;13.60;99.90;;;;;;20574482;28;20212;-75
2021/11/07 18:02:20;;;;;;;0.20;0.10;;;12.30;99.90;;;;;;20571553;28;20225;-72
2021/11/07 18:12:26;;;;;;;0.20;0.10;;;12.40;99.90;;;;;;20570790;28;20259;-73
2021/11/07 18:22:35;;;;;;;0.20;0.10;;;12.40;99.90;;;;;;20552873;28;20207;-73
2021/11/07 18:32:39;;;;;;;0.20;0.10;;;12.40;99.90;;;;;;20564649;28;20720;-73
2021/11/07 18:42:49;;;;;;;0.20;0.10;;;13.20;99.90;;;;;;20581020;28;20192;-73
2021/11/07 18:52:55;;;;;;;0.20;0.10;;;13.50;99.90;;;;;;20562886;28;20266;-73
2021/11/07 19:03:00;;;;;;;0.20;0.10;;;13.70;99.90;;;;;;20567308;28;20210;-74
2021/11/07 19:13:05;;;;;;;0.20;0.10;;;13.90;99.90;;;;;;20582176;28;20362;-75
2021/11/07 19:23:12;;;;;;;0.20;0.10;;;13.70;99.90;;;;;;20580931;28;20248;-75
2021/11/07 19:33:18;;;;;;;0.20;0.10;;;13.50;99.90;;;;;;20584929;28;20582;-75
2021/11/07 19:43:23;;;;;;;0.20;0.10;;;13.50;99.90;;;;;;20565880;28;20203;-73
2021/11/07 19:53:26;;;;;;;0.20;0.10;;;13.40;99.90;;;;;;20581042;28;20636;-73
2021/11/07 20:13:55;;;;;;;0.20;0.10;;;13.20;99.90;;;;;;20568206;28;20231;-72
2021/11/07 20:24:00;;;;;;;0.20;0.10;;;13.00;99.90;;;;;;20552546;28;20283;-73
2021/11/07 20:34:09;;;;;;;0.20;0.10;;;12.90;99.90;;;;;;20579406;28;20224;-74
2021/11/07 20:44:24;;;;;;;0.20;0.10;;;13.80;99.90;;;;;;20560217;28;20200;-72
2021/11/07 20:54:36;;;;;;;0.20;0.10;;;13.90;99.90;;;;;;20577844;28;20236;-73
2021/11/07 21:04:45;;;;;;;0.20;0.00;;;13.80;99.90;;;;;;20576809;28;20199;-73
2021/11/07 21:14:56;;;;;;;0.20;0.10;;;13.80;99.90;;;;;;20575968;28;20239;-73
2021/11/07 21:35:26;;;;;;;0.20;0.10;;;13.00;99.90;;;;;;20575299;28;20232;-72
2021/11/07 21:45:34;;;;;;;0.20;0.10;;;12.70;99.90;;;;;;20556512;28;20238;-73
2021/11/07 21:55:38;;;;;;;0.20;0.10;;;12.30;99.90;;;;;;20573223;28;20331;-73
2021/11/07 22:05:44;;;;;;;0.20;0.10;;;11.90;99.90;;;;;;20555781;28;20681;-73
2021/11/07 22:16:17;;;;;;;0.20;0.10;;;12.10;99.90;;;;;;20575434;28;20580;-74
2021/11/07 22:26:26;;;;;;;0.20;0.10;;;12.70;99.90;;;;;;20575201;28;20220;-73
2021/11/07 22:36:33;;;;;;;0.20;0.10;;;12.60;99.90;;;;;;20555176;28;20628;-73
2021/11/07 22:46:38;;;;;;;0.20;0.10;;;12.80;99.90;;;;;;20565429;28;20204;-73
2021/11/07 22:56:54;;;;;;;0.20;0.10;;;12.80;99.90;;;;;;20571835;28;20224;-72
2021/11/07 23:07:05;;;;;;;0.20;0.10;;;12.80;99.90;;;;;;20551003;28;20615;-72
2021/11/07 23:17:13;;;;;;;0.20;0.10;;;12.60;99.90;;;;;;20578861;28;20247;-73
2021/11/07 23:27:19;;;;;;;0.20;0.10;;;12.60;99.90;;;;;;20587896;28;20287;-73
2021/11/07 23:37:28;;;;;;;0.20;0.10;;;12.60;99.90;;;;;;20569915;28;20271;-74
2021/11/07 23:47:34;;;;;;;0.20;0.10;;;12.40;99.90;;;;;;20585477;28;20348;-74
2021/11/07 23:57:44;;;;;;;0.20;0.10;;;12.40;99.90;;;;;;20563502;28;20233;-73
